createdAt,value
2018-06-09T00:02:40.807Z,22.65
2018-06-09T00:17:34.471Z,22.43
2018-06-09T00:32:39.865Z,22.23
2018-06-09T00:47:40.069Z,22.06
2018-06-09T01:02:40.013Z,21.71
2018-06-09T01:17:46.143Z,21.62
2018-06-09T01:32:42.348Z,21.45
2018-06-09T01:47:46.307Z,21.33
2018-06-09T02:02:40.492Z,21.48
2018-06-09T02:17:40.565Z,21.51
2018-06-09T02:32:34.879Z,21.62
2018-06-09T02:47:36.992Z,21.56
2018-06-09T03:02:34.247Z,21.01
2018-06-09T03:17:34.287Z,20.87
2018-06-09T03:32:35.717Z,21.10
2018-06-09T03:47:34.375Z,21.45
2018-06-09T04:02:33.942Z,21.70
2018-06-09T04:17:34.418Z,21.94
2018-06-09T04:32:35.929Z,22.18
2018-06-09T04:47:34.874Z,22.61
2018-06-09T05:02:36.524Z,22.86
2018-06-09T05:17:34.883Z,23.24
2018-06-09T05:32:39.214Z,23.49
2018-06-09T05:47:37.494Z,23.86
2018-06-09T06:02:37.795Z,23.89
2018-06-09T06:17:35.546Z,24.83
2018-06-09T06:32:35.536Z,26.71
2018-06-09T06:47:34.812Z,27.96
2018-06-09T07:02:36.902Z,28.76
2018-06-09T07:17:34.895Z,30.08
2018-06-09T07:32:38.800Z,30.74
2018-06-09T07:47:37.782Z,30.52
2018-06-09T08:02:35.825Z,31.06
2018-06-09T08:17:42.262Z,30.47
2018-06-09T08:47:34.776Z,32.72
2018-06-09T09:02:35.122Z,33.72
2018-06-09T09:17:34.719Z,34.19
2018-06-09T09:32:36.349Z,34.08
2018-06-09T09:47:35.125Z,33.84
2018-06-09T10:02:37.572Z,32.90
2018-06-09T10:17:38.126Z,32.10
2018-06-09T10:32:35.284Z,32.45
2018-06-09T10:47:42.857Z,32.26
2018-06-09T11:02:40.991Z,32.26
2018-06-09T11:17:35.499Z,32.08
2018-06-09T11:32:36.731Z,30.61
2018-06-09T11:47:36.598Z,29.18
2018-06-09T12:02:34.832Z,28.20
2018-06-09T12:17:36.671Z,27.10
2018-06-09T12:32:37.308Z,26.61
2018-06-09T12:47:34.983Z,25.98
2018-06-09T13:02:35.066Z,25.60
2018-06-09T13:17:35.064Z,25.36
2018-06-09T13:32:35.409Z,25.38
2018-06-09T13:47:34.451Z,25.42
2018-06-09T14:02:36.672Z,25.45
2018-06-09T14:17:34.485Z,25.48
2018-06-09T14:32:34.856Z,26.18
2018-06-09T14:47:35.063Z,26.40
2018-06-09T15:02:35.118Z,25.83
2018-06-09T15:17:34.931Z,25.49
2018-06-09T15:32:37.883Z,24.99
2018-06-09T15:47:37.255Z,24.15
2018-06-09T16:02:35.840Z,24.82
2018-06-09T16:17:34.794Z,25.72
2018-06-09T16:32:34.939Z,26.08
2018-06-09T16:47:34.692Z,26.22
2018-06-09T17:02:34.918Z,26.13
2018-06-09T17:17:34.951Z,26.02
2018-06-09T17:32:33.739Z,25.13
2018-06-09T17:47:34.798Z,26.07
2018-06-09T18:02:35.331Z,26.22
2018-06-09T18:17:35.352Z,26.21
